sensor_id;sensor_type;location;lat;lon;timestamp;P1;durP1;ratioP1;P2;durP2;ratioP2
36351;SDS011;22382;44.768;17.206;2022-12-04T00:01:12;103.50;;;39.95;;
36351;SDS011;22382;44.768;17.206;2022-12-04T00:03:42;104.10;;;41.08;;
36351;SDS011;22382;44.768;17.206;2022-12-04T00:06:10;101.78;;;43.08;;
36351;SDS011;22382;44.768;17.206;2022-12-04T00:08:39;107.28;;;42.03;;
36351;SDS011;22382;44.768;17.206;2022-12-04T00:11:07;105.95;;;43.10;;
36351;SDS011;22382;44.768;17.206;2022-12-04T00:13:36;116.65;;;43.08;;
36351;SDS011;22382;44.768;17.206;2022-12-04T00:16:05;107.55;;;41.35;;
36351;SDS011;22382;44.768;17.206;2022-12-04T00:18:33;111.70;;;41.75;;
36351;SDS011;22382;44.768;17.206;2022-12-04T00:21:08;105.50;;;40.38;;
36351;SDS011;22382;44.768;17.206;2022-12-04T00:23:36;104.60;;;41.33;;
36351;SDS011;22382;44.768;17.206;2022-12-04T00:26:08;102.45;;;40.50;;
36351;SDS011;22382;44.768;17.206;2022-12-04T00:28:37;102.72;;;39.03;;
36351;SDS011;22382;44.768;17.206;2022-12-04T00:31:06;92.15;;;38.40;;
36351;SDS011;22382;44.768;17.206;2022-12-04T00:33:35;90.32;;;39.22;;
36351;SDS011;22382;44.768;17.206;2022-12-04T00:36:04;90.85;;;39.28;;
36351;SDS011;22382;44.768;17.206;2022-12-04T00:38:33;92.60;;;37.90;;
36351;SDS011;22382;44.768;17.206;2022-12-04T00:41:00;93.45;;;37.65;;
36351;SDS011;22382;44.768;17.206;2022-12-04T00:43:28;100.32;;;38.67;;
36351;SDS011;22382;44.768;17.206;2022-12-04T00:45:56;89.00;;;38.10;;
36351;SDS011;22382;44.768;17.206;2022-12-04T00:48:23;89.00;;;38.17;;
36351;SDS011;22382;44.768;17.206;2022-12-04T00:50:50;94.35;;;37.05;;
36351;SDS011;22382;44.768;17.206;2022-12-04T00:53:19;94.15;;;38.85;;
36351;SDS011;22382;44.768;17.206;2022-12-04T00:55:46;91.43;;;37.22;;
36351;SDS011;22382;44.768;17.206;2022-12-04T00:58:13;89.60;;;36.25;;
36351;SDS011;22382;44.768;17.206;2022-12-04T01:00:40;93.53;;;37.65;;
36351;SDS011;22382;44.768;17.206;2022-12-04T01:03:08;92.25;;;37.63;;
36351;SDS011;22382;44.768;17.206;2022-12-04T01:05:42;96.32;;;37.45;;
36351;SDS011;22382;44.768;17.206;2022-12-04T01:08:11;84.78;;;35.90;;
36351;SDS011;22382;44.768;17.206;2022-12-04T01:10:39;89.38;;;36.90;;
36351;SDS011;22382;44.768;17.206;2022-12-04T01:13:06;90.70;;;37.70;;
36351;SDS011;22382;44.768;17.206;2022-12-04T01:15:37;96.20;;;37.55;;
36351;SDS011;22382;44.768;17.206;2022-12-04T01:18:09;89.07;;;36.40;;
36351;SDS011;22382;44.768;17.206;2022-12-04T01:20:37;97.93;;;39.08;;
36351;SDS011;22382;44.768;17.206;2022-12-04T01:23:04;102.18;;;38.83;;
36351;SDS011;22382;44.768;17.206;2022-12-04T01:25:31;102.53;;;39.55;;
36351;SDS011;22382;44.768;17.206;2022-12-04T01:27:58;103.43;;;38.80;;
36351;SDS011;22382;44.768;17.206;2022-12-04T01:30:25;104.13;;;39.28;;
36351;SDS011;22382;44.768;17.206;2022-12-04T01:32:53;89.75;;;35.78;;
36351;SDS011;22382;44.768;17.206;2022-12-04T01:35:20;86.55;;;34.25;;
36351;SDS011;22382;44.768;17.206;2022-12-04T01:37:46;96.80;;;37.78;;
36351;SDS011;22382;44.768;17.206;2022-12-04T01:40:14;91.80;;;35.72;;
36351;SDS011;22382;44.768;17.206;2022-12-04T01:42:42;84.78;;;35.97;;
36351;SDS011;22382;44.768;17.206;2022-12-04T01:48:08;79.55;;;33.42;;
36351;SDS011;22382;44.768;17.206;2022-12-04T01:50:44;79.22;;;33.03;;
36351;SDS011;22382;44.768;17.206;2022-12-04T01:53:13;68.28;;;30.45;;
36351;SDS011;22382;44.768;17.206;2022-12-04T01:55:41;72.80;;;29.23;;
36351;SDS011;22382;44.768;17.206;2022-12-04T01:58:09;67.72;;;28.88;;
36351;SDS011;22382;44.768;17.206;2022-12-04T02:00:36;67.20;;;28.90;;
36351;SDS011;22382;44.768;17.206;2022-12-04T02:03:03;63.88;;;27.70;;
36351;SDS011;22382;44.768;17.206;2022-12-04T02:05:30;59.83;;;27.83;;
36351;SDS011;22382;44.768;17.206;2022-12-04T02:07:59;56.15;;;26.33;;
36351;SDS011;22382;44.768;17.206;2022-12-04T02:10:33;66.27;;;27.30;;
36351;SDS011;22382;44.768;17.206;2022-12-04T02:13:41;58.47;;;26.88;;
36351;SDS011;22382;44.768;17.206;2022-12-04T02:16:18;58.40;;;25.95;;
36351;SDS011;22382;44.768;17.206;2022-12-04T02:19:06;53.67;;;23.92;;
36351;SDS011;22382;44.768;17.206;2022-12-04T02:21:44;55.45;;;24.65;;
36351;SDS011;22382;44.768;17.206;2022-12-04T02:27:13;59.42;;;27.27;;
36351;SDS011;22382;44.768;17.206;2022-12-04T02:30:13;52.38;;;24.30;;
36351;SDS011;22382;44.768;17.206;2022-12-04T02:35:28;53.63;;;25.40;;
36351;SDS011;22382;44.768;17.206;2022-12-04T02:37:58;47.35;;;23.13;;
36351;SDS011;22382;44.768;17.206;2022-12-04T02:40:40;51.05;;;23.90;;
36351;SDS011;22382;44.768;17.206;2022-12-04T02:43:14;46.75;;;22.40;;
36351;SDS011;22382;44.768;17.206;2022-12-04T02:46:08;50.30;;;23.90;;
36351;SDS011;22382;44.768;17.206;2022-12-04T02:51:07;48.00;;;22.63;;
36351;SDS011;22382;44.768;17.206;2022-12-04T02:53:43;52.30;;;23.50;;
36351;SDS011;22382;44.768;17.206;2022-12-04T02:56:15;45.72;;;22.80;;
36351;SDS011;22382;44.768;17.206;2022-12-04T02:58:52;50.05;;;24.13;;
36351;SDS011;22382;44.768;17.206;2022-12-04T03:01:27;50.80;;;24.25;;
36351;SDS011;22382;44.768;17.206;2022-12-04T03:04:06;49.60;;;23.23;;
36351;SDS011;22382;44.768;17.206;2022-12-04T03:06:45;53.22;;;24.15;;
36351;SDS011;22382;44.768;17.206;2022-12-04T03:09:16;41.00;;;19.07;;
36351;SDS011;22382;44.768;17.206;2022-12-04T03:11:57;52.38;;;24.90;;
36351;SDS011;22382;44.768;17.206;2022-12-04T03:14:32;51.83;;;24.05;;
36351;SDS011;22382;44.768;17.206;2022-12-04T03:17:05;46.92;;;24.02;;
36351;SDS011;22382;44.768;17.206;2022-12-04T03:19:44;48.35;;;24.27;;
36351;SDS011;22382;44.768;17.206;2022-12-04T03:22:17;47.88;;;23.45;;
36351;SDS011;22382;44.768;17.206;2022-12-04T03:24:49;51.38;;;22.63;;
36351;SDS011;22382;44.768;17.206;2022-12-04T03:29:57;43.15;;;20.52;;
36351;SDS011;22382;44.768;17.206;2022-12-04T03:32:38;48.25;;;22.65;;
36351;SDS011;22382;44.768;17.206;2022-12-04T03:37:57;47.15;;;24.25;;
36351;SDS011;22382;44.768;17.206;2022-12-04T03:40:33;42.47;;;21.30;;
36351;SDS011;22382;44.768;17.206;2022-12-04T03:43:03;41.20;;;21.27;;
36351;SDS011;22382;44.768;17.206;2022-12-04T03:45:44;44.05;;;21.23;;
36351;SDS011;22382;44.768;17.206;2022-12-04T03:48:37;45.40;;;21.60;;
36351;SDS011;22382;44.768;17.206;2022-12-04T03:54:01;41.92;;;22.27;;
36351;SDS011;22382;44.768;17.206;2022-12-04T03:56:31;39.05;;;20.05;;
36351;SDS011;22382;44.768;17.206;2022-12-04T03:59:07;40.55;;;20.00;;
36351;SDS011;22382;44.768;17.206;2022-12-04T04:01:44;36.13;;;18.67;;
36351;SDS011;22382;44.768;17.206;2022-12-04T04:04:15;39.90;;;20.40;;
36351;SDS011;22382;44.768;17.206;2022-12-04T04:09:23;36.20;;;19.63;;
36351;SDS011;22382;44.768;17.206;2022-12-04T04:12:02;41.20;;;20.13;;
36351;SDS011;22382;44.768;17.206;2022-12-04T04:14:35;34.75;;;18.70;;
36351;SDS011;22382;44.768;17.206;2022-12-04T04:17:30;36.97;;;19.27;;
36351;SDS011;22382;44.768;17.206;2022-12-04T04:20:26;37.03;;;17.50;;
36351;SDS011;22382;44.768;17.206;2022-12-04T04:23:26;33.92;;;17.58;;
36351;SDS011;22382;44.768;17.206;2022-12-04T04:26:16;34.30;;;17.58;;
36351;SDS011;22382;44.768;17.206;2022-12-04T04:28:44;35.60;;;17.33;;
36351;SDS011;22382;44.768;17.206;2022-12-04T04:34:13;34.45;;;17.55;;
36351;SDS011;22382;44.768;17.206;2022-12-04T04:39:38;30.52;;;15.98;;
36351;SDS011;22382;44.768;17.206;2022-12-04T04:42:24;29.95;;;16.40;;
36351;SDS011;22382;44.768;17.206;2022-12-04T04:45:07;28.45;;;15.77;;
36351;SDS011;22382;44.768;17.206;2022-12-04T04:50:33;27.70;;;15.43;;
36351;SDS011;22382;44.768;17.206;2022-12-04T04:53:02;27.10;;;14.88;;
36351;SDS011;22382;44.768;17.206;2022-12-04T04:55:31;28.20;;;15.73;;
36351;SDS011;22382;44.768;17.206;2022-12-04T04:58:07;29.73;;;16.42;;
36351;SDS011;22382;44.768;17.206;2022-12-04T05:00:36;32.58;;;16.25;;
36351;SDS011;22382;44.768;17.206;2022-12-04T05:03:03;26.95;;;15.35;;
36351;SDS011;22382;44.768;17.206;2022-12-04T05:05:31;31.00;;;15.85;;
36351;SDS011;22382;44.768;17.206;2022-12-04T05:07:58;28.67;;;15.75;;
36351;SDS011;22382;44.768;17.206;2022-12-04T05:10:25;28.48;;;15.95;;
36351;SDS011;22382;44.768;17.206;2022-12-04T05:12:52;25.38;;;13.38;;
36351;SDS011;22382;44.768;17.206;2022-12-04T05:15:19;24.00;;;14.00;;
36351;SDS011;22382;44.768;17.206;2022-12-04T05:17:46;24.00;;;14.00;;
36351;SDS011;22382;44.768;17.206;2022-12-04T05:20:13;24.65;;;13.50;;
36351;SDS011;22382;44.768;17.206;2022-12-04T05:22:40;25.02;;;15.25;;
36351;SDS011;22382;44.768;17.206;2022-12-04T05:25:07;29.55;;;15.77;;
36351;SDS011;22382;44.768;17.206;2022-12-04T05:27:34;26.13;;;16.00;;
36351;SDS011;22382;44.768;17.206;2022-12-04T05:30:01;28.10;;;15.30;;
36351;SDS011;22382;44.768;17.206;2022-12-04T05:32:29;33.50;;;16.48;;
36351;SDS011;22382;44.768;17.206;2022-12-04T05:34:56;25.27;;;15.20;;
36351;SDS011;22382;44.768;17.206;2022-12-04T05:37:23;26.83;;;15.70;;
36351;SDS011;22382;44.768;17.206;2022-12-04T05:39:51;27.95;;;15.50;;
36351;SDS011;22382;44.768;17.206;2022-12-04T05:42:19;28.50;;;16.45;;
36351;SDS011;22382;44.768;17.206;2022-12-04T05:44:47;27.15;;;14.90;;
36351;SDS011;22382;44.768;17.206;2022-12-04T05:47:15;27.67;;;15.30;;
36351;SDS011;22382;44.768;17.206;2022-12-04T05:49:42;27.00;;;15.20;;
36351;SDS011;22382;44.768;17.206;2022-12-04T05:52:09;28.80;;;15.70;;
36351;SDS011;22382;44.768;17.206;2022-12-04T05:54:36;27.52;;;14.82;;
36351;SDS011;22382;44.768;17.206;2022-12-04T05:57:03;28.52;;;14.68;;
36351;SDS011;22382;44.768;17.206;2022-12-04T05:59:30;30.60;;;15.30;;
36351;SDS011;22382;44.768;17.206;2022-12-04T06:01:57;32.13;;;15.32;;
36351;SDS011;22382;44.768;17.206;2022-12-04T06:04:25;36.50;;;16.23;;
36351;SDS011;22382;44.768;17.206;2022-12-04T06:06:52;30.45;;;15.70;;
36351;SDS011;22382;44.768;17.206;2022-12-04T06:09:20;33.63;;;16.42;;
36351;SDS011;22382;44.768;17.206;2022-12-04T06:11:47;38.20;;;18.65;;
36351;SDS011;22382;44.768;17.206;2022-12-04T06:14:14;33.00;;;17.05;;
36351;SDS011;22382;44.768;17.206;2022-12-04T06:16:42;34.67;;;17.45;;
36351;SDS011;22382;44.768;17.206;2022-12-04T06:19:13;35.33;;;18.00;;
36351;SDS011;22382;44.768;17.206;2022-12-04T06:21:42;36.03;;;17.02;;
36351;SDS011;22382;44.768;17.206;2022-12-04T06:24:12;37.33;;;18.30;;
36351;SDS011;22382;44.768;17.206;2022-12-04T06:26:41;34.05;;;16.98;;
36351;SDS011;22382;44.768;17.206;2022-12-04T06:29:28;31.38;;;16.38;;
36351;SDS011;22382;44.768;17.206;2022-12-04T06:31:56;37.58;;;18.65;;
36351;SDS011;22382;44.768;17.206;2022-12-04T06:34:23;37.67;;;19.27;;
36351;SDS011;22382;44.768;17.206;2022-12-04T06:36:50;33.88;;;17.80;;
36351;SDS011;22382;44.768;17.206;2022-12-04T06:39:17;33.58;;;16.85;;
36351;SDS011;22382;44.768;17.206;2022-12-04T06:41:44;36.95;;;18.30;;
36351;SDS011;22382;44.768;17.206;2022-12-04T06:44:13;38.78;;;21.23;;
36351;SDS011;22382;44.768;17.206;2022-12-04T06:46:40;43.00;;;23.05;;
36351;SDS011;22382;44.768;17.206;2022-12-04T06:49:12;49.30;;;23.30;;
36351;SDS011;22382;44.768;17.206;2022-12-04T06:51:39;45.17;;;21.75;;
36351;SDS011;22382;44.768;17.206;2022-12-04T06:54:06;51.92;;;24.30;;
36351;SDS011;22382;44.768;17.206;2022-12-04T06:56:34;58.42;;;25.70;;
36351;SDS011;22382;44.768;17.206;2022-12-04T06:59:02;54.60;;;25.83;;
36351;SDS011;22382;44.768;17.206;2022-12-04T07:01:31;56.80;;;26.27;;
36351;SDS011;22382;44.768;17.206;2022-12-04T07:03:59;60.10;;;25.83;;
36351;SDS011;22382;44.768;17.206;2022-12-04T07:06:33;56.08;;;25.08;;
36351;SDS011;22382;44.768;17.206;2022-12-04T07:11:36;55.63;;;25.00;;
36351;SDS011;22382;44.768;17.206;2022-12-04T07:14:04;54.95;;;25.17;;
36351;SDS011;22382;44.768;17.206;2022-12-04T07:16:31;54.25;;;25.25;;
36351;SDS011;22382;44.768;17.206;2022-12-04T07:19:06;48.60;;;23.50;;
36351;SDS011;22382;44.768;17.206;2022-12-04T07:21:33;53.22;;;24.63;;
36351;SDS011;22382;44.768;17.206;2022-12-04T07:24:00;53.63;;;24.25;;
36351;SDS011;22382;44.768;17.206;2022-12-04T07:26:28;49.67;;;24.15;;
36351;SDS011;22382;44.768;17.206;2022-12-04T07:28:56;54.55;;;25.23;;
36351;SDS011;22382;44.768;17.206;2022-12-04T07:31:24;59.03;;;26.48;;
36351;SDS011;22382;44.768;17.206;2022-12-04T07:33:53;55.97;;;26.83;;
36351;SDS011;22382;44.768;17.206;2022-12-04T07:36:21;62.85;;;27.83;;
36351;SDS011;22382;44.768;17.206;2022-12-04T07:38:49;51.83;;;26.92;;
36351;SDS011;22382;44.768;17.206;2022-12-04T07:41:17;65.28;;;29.90;;
36351;SDS011;22382;44.768;17.206;2022-12-04T07:43:45;54.40;;;26.50;;
36351;SDS011;22382;44.768;17.206;2022-12-04T07:46:17;57.25;;;27.05;;
36351;SDS011;22382;44.768;17.206;2022-12-04T07:48:46;55.05;;;26.33;;
36351;SDS011;22382;44.768;17.206;2022-12-04T07:51:15;56.08;;;28.25;;
36351;SDS011;22382;44.768;17.206;2022-12-04T07:53:43;54.15;;;28.55;;
36351;SDS011;22382;44.768;17.206;2022-12-04T07:56:11;58.35;;;27.65;;
36351;SDS011;22382;44.768;17.206;2022-12-04T07:58:40;60.97;;;30.35;;
36351;SDS011;22382;44.768;17.206;2022-12-04T08:01:08;59.50;;;28.30;;
36351;SDS011;22382;44.768;17.206;2022-12-04T08:03:38;62.90;;;31.38;;
36351;SDS011;22382;44.768;17.206;2022-12-04T08:06:13;55.42;;;27.75;;
36351;SDS011;22382;44.768;17.206;2022-12-04T08:08:41;63.42;;;30.00;;
36351;SDS011;22382;44.768;17.206;2022-12-04T08:11:09;61.70;;;30.63;;
36351;SDS011;22382;44.768;17.206;2022-12-04T08:13:37;68.68;;;31.92;;
36351;SDS011;22382;44.768;17.206;2022-12-04T08:16:05;63.75;;;30.63;;
36351;SDS011;22382;44.768;17.206;2022-12-04T08:18:34;59.17;;;30.10;;
36351;SDS011;22382;44.768;17.206;2022-12-04T08:21:06;57.33;;;28.60;;
36351;SDS011;22382;44.768;17.206;2022-12-04T08:23:35;60.15;;;28.27;;
36351;SDS011;22382;44.768;17.206;2022-12-04T08:26:04;67.70;;;30.15;;
36351;SDS011;22382;44.768;17.206;2022-12-04T08:28:31;55.53;;;27.30;;
36351;SDS011;22382;44.768;17.206;2022-12-04T08:31:02;54.78;;;26.23;;
36351;SDS011;22382;44.768;17.206;2022-12-04T08:33:37;59.35;;;28.00;;
36351;SDS011;22382;44.768;17.206;2022-12-04T08:36:05;51.58;;;25.98;;
36351;SDS011;22382;44.768;17.206;2022-12-04T08:38:34;58.35;;;27.13;;
36351;SDS011;22382;44.768;17.206;2022-12-04T08:41:02;58.05;;;27.17;;
36351;SDS011;22382;44.768;17.206;2022-12-04T08:43:31;51.00;;;25.65;;
36351;SDS011;22382;44.768;17.206;2022-12-04T08:45:59;48.40;;;23.85;;
36351;SDS011;22382;44.768;17.206;2022-12-04T08:48:27;52.10;;;24.80;;
36351;SDS011;22382;44.768;17.206;2022-12-04T08:50:55;51.42;;;25.25;;
36351;SDS011;22382;44.768;17.206;2022-12-04T08:53:22;47.67;;;24.42;;
36351;SDS011;22382;44.768;17.206;2022-12-04T08:55:50;54.22;;;26.00;;
36351;SDS011;22382;44.768;17.206;2022-12-04T08:58:17;46.65;;;23.58;;
36351;SDS011;22382;44.768;17.206;2022-12-04T09:00:45;50.88;;;25.65;;
36351;SDS011;22382;44.768;17.206;2022-12-04T09:03:13;60.67;;;26.98;;
36351;SDS011;22382;44.768;17.206;2022-12-04T09:05:42;50.30;;;25.65;;
36351;SDS011;22382;44.768;17.206;2022-12-04T09:08:11;53.90;;;27.00;;
36351;SDS011;22382;44.768;17.206;2022-12-04T09:10:40;45.33;;;24.52;;
36351;SDS011;22382;44.768;17.206;2022-12-04T09:13:07;54.38;;;26.70;;
36351;SDS011;22382;44.768;17.206;2022-12-04T09:15:37;52.13;;;27.25;;
36351;SDS011;22382;44.768;17.206;2022-12-04T09:18:05;50.78;;;25.00;;
36351;SDS011;22382;44.768;17.206;2022-12-04T09:20:33;51.58;;;26.63;;
36351;SDS011;22382;44.768;17.206;2022-12-04T09:23:00;50.47;;;25.00;;
36351;SDS011;22382;44.768;17.206;2022-12-04T09:25:30;48.60;;;25.70;;
36351;SDS011;22382;44.768;17.206;2022-12-04T09:27:57;48.72;;;25.48;;
36351;SDS011;22382;44.768;17.206;2022-12-04T09:30:24;54.72;;;24.95;;
36351;SDS011;22382;44.768;17.206;2022-12-04T09:32:51;46.70;;;24.27;;
36351;SDS011;22382;44.768;17.206;2022-12-04T09:35:18;51.78;;;25.83;;
36351;SDS011;22382;44.768;17.206;2022-12-04T09:37:45;56.92;;;28.58;;
36351;SDS011;22382;44.768;17.206;2022-12-04T09:40:28;48.67;;;26.42;;
36351;SDS011;22382;44.768;17.206;2022-12-04T09:45:41;52.38;;;27.02;;
36351;SDS011;22382;44.768;17.206;2022-12-04T09:48:14;57.60;;;29.60;;
36351;SDS011;22382;44.768;17.206;2022-12-04T09:50:44;60.90;;;31.42;;
36351;SDS011;22382;44.768;17.206;2022-12-04T09:53:21;61.08;;;31.48;;
36351;SDS011;22382;44.768;17.206;2022-12-04T09:56:14;54.38;;;28.77;;
36351;SDS011;22382;44.768;17.206;2022-12-04T10:01:27;67.55;;;33.90;;
36351;SDS011;22382;44.768;17.206;2022-12-04T10:04:01;61.20;;;32.88;;
36351;SDS011;22382;44.768;17.206;2022-12-04T10:06:34;71.40;;;35.95;;
36351;SDS011;22382;44.768;17.206;2022-12-04T10:09:16;66.53;;;33.60;;
36351;SDS011;22382;44.768;17.206;2022-12-04T10:11:51;62.83;;;33.70;;
36351;SDS011;22382;44.768;17.206;2022-12-04T10:21:14;78.03;;;39.53;;
36351;SDS011;22382;44.768;17.206;2022-12-04T10:26:50;70.13;;;36.38;;
36351;SDS011;22382;44.768;17.206;2022-12-04T10:29:26;75.65;;;37.78;;
36351;SDS011;22382;44.768;17.206;2022-12-04T10:32:01;67.95;;;34.85;;
36351;SDS011;22382;44.768;17.206;2022-12-04T10:34:48;76.43;;;37.75;;
36351;SDS011;22382;44.768;17.206;2022-12-04T10:37:19;69.20;;;36.38;;
36351;SDS011;22382;44.768;17.206;2022-12-04T10:40:02;77.63;;;40.17;;
36351;SDS011;22382;44.768;17.206;2022-12-04T10:43:00;81.25;;;40.83;;
36351;SDS011;22382;44.768;17.206;2022-12-04T10:45:51;84.03;;;39.63;;
36351;SDS011;22382;44.768;17.206;2022-12-04T10:48:23;83.85;;;40.88;;
36351;SDS011;22382;44.768;17.206;2022-12-04T10:51:11;84.10;;;40.55;;
36351;SDS011;22382;44.768;17.206;2022-12-04T10:53:50;87.05;;;43.25;;
36351;SDS011;22382;44.768;17.206;2022-12-04T10:56:23;89.18;;;44.40;;
36351;SDS011;22382;44.768;17.206;2022-12-04T10:58:59;86.85;;;43.30;;
36351;SDS011;22382;44.768;17.206;2022-12-04T11:01:32;92.22;;;44.92;;
36351;SDS011;22382;44.768;17.206;2022-12-04T11:04:07;81.30;;;42.25;;
36351;SDS011;22382;44.768;17.206;2022-12-04T11:09:20;89.35;;;44.33;;
36351;SDS011;22382;44.768;17.206;2022-12-04T11:12:03;81.07;;;42.80;;
36351;SDS011;22382;44.768;17.206;2022-12-04T11:15:30;87.07;;;44.10;;
36351;SDS011;22382;44.768;17.206;2022-12-04T11:17:52;78.45;;;40.42;;
36351;SDS011;22382;44.768;17.206;2022-12-04T11:20:24;76.80;;;38.75;;
36351;SDS011;22382;44.768;17.206;2022-12-04T11:22:56;68.72;;;34.53;;
36351;SDS011;22382;44.768;17.206;2022-12-04T11:25:26;67.35;;;33.97;;
36351;SDS011;22382;44.768;17.206;2022-12-04T11:27:58;66.07;;;33.60;;
36351;SDS011;22382;44.768;17.206;2022-12-04T11:30:34;64.63;;;34.67;;
36351;SDS011;22382;44.768;17.206;2022-12-04T11:33:13;63.10;;;34.97;;
36351;SDS011;22382;44.768;17.206;2022-12-04T11:35:54;64.15;;;33.22;;
36351;SDS011;22382;44.768;17.206;2022-12-04T11:38:28;68.72;;;35.20;;
36351;SDS011;22382;44.768;17.206;2022-12-04T11:41:02;68.75;;;37.17;;
36351;SDS011;22382;44.768;17.206;2022-12-04T11:43:34;72.38;;;39.13;;
36351;SDS011;22382;44.768;17.206;2022-12-04T11:46:05;81.68;;;41.92;;
36351;SDS011;22382;44.768;17.206;2022-12-04T11:48:43;80.30;;;41.70;;
36351;SDS011;22382;44.768;17.206;2022-12-04T11:53:50;82.35;;;40.90;;
36351;SDS011;22382;44.768;17.206;2022-12-04T11:56:30;77.35;;;41.65;;
36351;SDS011;22382;44.768;17.206;2022-12-04T12:13:52;84.35;;;42.50;;
36351;SDS011;22382;44.768;17.206;2022-12-04T12:27:57;77.55;;;41.08;;
36351;SDS011;22382;44.768;17.206;2022-12-04T12:30:42;82.22;;;42.03;;
36351;SDS011;22382;44.768;17.206;2022-12-04T12:36:46;86.83;;;44.53;;
36351;SDS011;22382;44.768;17.206;2022-12-04T12:40:13;85.60;;;44.67;;
36351;SDS011;22382;44.768;17.206;2022-12-04T12:42:17;82.13;;;42.50;;
36351;SDS011;22382;44.768;17.206;2022-12-04T12:44:52;89.00;;;45.25;;
36351;SDS011;22382;44.768;17.206;2022-12-04T12:47:29;96.18;;;47.75;;
36351;SDS011;22382;44.768;17.206;2022-12-04T12:53:02;91.15;;;46.53;;
36351;SDS011;22382;44.768;17.206;2022-12-04T12:55:42;87.60;;;45.40;;
36351;SDS011;22382;44.768;17.206;2022-12-04T13:04:09;94.18;;;47.58;;
36351;SDS011;22382;44.768;17.206;2022-12-04T13:06:49;89.70;;;46.47;;
36351;SDS011;22382;44.768;17.206;2022-12-04T13:09:31;113.90;;;60.60;;
36351;SDS011;22382;44.768;17.206;2022-12-04T13:12:04;94.65;;;48.03;;
36351;SDS011;22382;44.768;17.206;2022-12-04T13:14:37;84.55;;;44.00;;
36351;SDS011;22382;44.768;17.206;2022-12-04T13:20:13;91.28;;;47.28;;
36351;SDS011;22382;44.768;17.206;2022-12-04T13:29:25;92.28;;;46.35;;
36351;SDS011;22382;44.768;17.206;2022-12-04T13:35:04;90.57;;;45.58;;
36351;SDS011;22382;44.768;17.206;2022-12-04T13:40:27;89.70;;;46.38;;
36351;SDS011;22382;44.768;17.206;2022-12-04T13:45:46;88.15;;;46.70;;
36351;SDS011;22382;44.768;17.206;2022-12-04T13:48:25;85.10;;;46.70;;
36351;SDS011;22382;44.768;17.206;2022-12-04T13:51:05;87.25;;;45.67;;
36351;SDS011;22382;44.768;17.206;2022-12-04T13:53:39;88.60;;;45.90;;
36351;SDS011;22382;44.768;17.206;2022-12-04T13:56:21;80.03;;;43.22;;
36351;SDS011;22382;44.768;17.206;2022-12-04T13:59:04;81.68;;;43.63;;
36351;SDS011;22382;44.768;17.206;2022-12-04T14:01:46;88.03;;;46.22;;
36351;SDS011;22382;44.768;17.206;2022-12-04T14:04:31;86.22;;;45.13;;
36351;SDS011;22382;44.768;17.206;2022-12-04T14:07:02;75.60;;;39.92;;
36351;SDS011;22382;44.768;17.206;2022-12-04T14:09:36;73.32;;;39.03;;
36351;SDS011;22382;44.768;17.206;2022-12-04T14:12:08;82.00;;;44.40;;
36351;SDS011;22382;44.768;17.206;2022-12-04T14:14:51;70.03;;;39.05;;
36351;SDS011;22382;44.768;17.206;2022-12-04T14:17:23;74.57;;;40.17;;
36351;SDS011;22382;44.768;17.206;2022-12-04T14:20:00;75.07;;;41.95;;
36351;SDS011;22382;44.768;17.206;2022-12-04T14:25:19;82.38;;;44.83;;
36351;SDS011;22382;44.768;17.206;2022-12-04T14:27:49;78.00;;;40.50;;
36351;SDS011;22382;44.768;17.206;2022-12-04T14:32:58;60.42;;;33.67;;
36351;SDS011;22382;44.768;17.206;2022-12-04T14:35:33;64.18;;;33.38;;
36351;SDS011;22382;44.768;17.206;2022-12-04T14:38:10;64.75;;;35.50;;
36351;SDS011;22382;44.768;17.206;2022-12-04T14:40:44;61.45;;;34.58;;
36351;SDS011;22382;44.768;17.206;2022-12-04T14:43:48;57.80;;;32.42;;
36351;SDS011;22382;44.768;17.206;2022-12-04T14:52:09;55.95;;;31.60;;
36351;SDS011;22382;44.768;17.206;2022-12-04T14:55:01;60.75;;;32.33;;
36351;SDS011;22382;44.768;17.206;2022-12-04T14:57:43;58.20;;;30.70;;
36351;SDS011;22382;44.768;17.206;2022-12-04T15:00:15;61.92;;;34.08;;
36351;SDS011;22382;44.768;17.206;2022-12-04T15:05:26;65.55;;;34.42;;
36351;SDS011;22382;44.768;17.206;2022-12-04T15:07:58;60.13;;;30.48;;
36351;SDS011;22382;44.768;17.206;2022-12-04T15:10:28;61.00;;;31.42;;
36351;SDS011;22382;44.768;17.206;2022-12-04T15:13:36;68.30;;;35.03;;
36351;SDS011;22382;44.768;17.206;2022-12-04T15:16:19;70.93;;;36.40;;
36351;SDS011;22382;44.768;17.206;2022-12-04T15:18:57;64.22;;;33.88;;
36351;SDS011;22382;44.768;17.206;2022-12-04T15:21:32;63.90;;;36.65;;
36351;SDS011;22382;44.768;17.206;2022-12-04T15:24:09;73.20;;;38.45;;
36351;SDS011;22382;44.768;17.206;2022-12-04T15:26:45;66.15;;;34.90;;
36351;SDS011;22382;44.768;17.206;2022-12-04T15:29:17;64.88;;;33.63;;
36351;SDS011;22382;44.768;17.206;2022-12-04T15:31:48;64.03;;;33.30;;
36351;SDS011;22382;44.768;17.206;2022-12-04T15:34:41;70.40;;;35.78;;
36351;SDS011;22382;44.768;17.206;2022-12-04T15:37:21;60.20;;;31.10;;
36351;SDS011;22382;44.768;17.206;2022-12-04T15:39:54;60.38;;;31.92;;
36351;SDS011;22382;44.768;17.206;2022-12-04T15:44:59;60.65;;;31.77;;
36351;SDS011;22382;44.768;17.206;2022-12-04T15:47:28;66.85;;;35.33;;
36351;SDS011;22382;44.768;17.206;2022-12-04T15:53:25;60.13;;;31.20;;
36351;SDS011;22382;44.768;17.206;2022-12-04T15:55:44;58.47;;;30.77;;
36351;SDS011;22382;44.768;17.206;2022-12-04T15:58:20;65.55;;;33.95;;
36351;SDS011;22382;44.768;17.206;2022-12-04T16:00:52;65.80;;;34.75;;
36351;SDS011;22382;44.768;17.206;2022-12-04T16:03:30;62.72;;;34.33;;
36351;SDS011;22382;44.768;17.206;2022-12-04T16:08:41;64.13;;;34.13;;
36351;SDS011;22382;44.768;17.206;2022-12-04T16:13:47;157.10;;;65.97;;
36351;SDS011;22382;44.768;17.206;2022-12-04T16:16:33;75.40;;;39.03;;
36351;SDS011;22382;44.768;17.206;2022-12-04T16:19:12;75.82;;;38.85;;
36351;SDS011;22382;44.768;17.206;2022-12-04T16:21:40;66.63;;;35.70;;
36351;SDS011;22382;44.768;17.206;2022-12-04T16:24:08;68.38;;;36.17;;
36351;SDS011;22382;44.768;17.206;2022-12-04T16:26:36;75.30;;;37.75;;
36351;SDS011;22382;44.768;17.206;2022-12-04T16:29:03;72.72;;;39.85;;
36351;SDS011;22382;44.768;17.206;2022-12-04T16:31:30;96.85;;;48.88;;
36351;SDS011;22382;44.768;17.206;2022-12-04T16:33:57;90.75;;;49.35;;
36351;SDS011;22382;44.768;17.206;2022-12-04T16:36:25;90.78;;;48.40;;
36351;SDS011;22382;44.768;17.206;2022-12-04T16:38:51;83.60;;;44.13;;
36351;SDS011;22382;44.768;17.206;2022-12-04T16:41:18;88.68;;;48.22;;
36351;SDS011;22382;44.768;17.206;2022-12-04T16:43:51;81.72;;;43.55;;
36351;SDS011;22382;44.768;17.206;2022-12-04T16:46:24;83.85;;;45.08;;
36351;SDS011;22382;44.768;17.206;2022-12-04T16:54:16;89.15;;;44.72;;
36351;SDS011;22382;44.768;17.206;2022-12-04T16:56:43;84.53;;;42.53;;
36351;SDS011;22382;44.768;17.206;2022-12-04T16:59:10;86.00;;;46.22;;
36351;SDS011;22382;44.768;17.206;2022-12-04T17:01:44;92.95;;;48.30;;